createdAt,value
2022-09-03T00:02:28.512Z,2.03
2022-09-03T00:06:48.445Z,1.60
2022-09-03T00:11:13.076Z,1.90
2022-09-03T00:15:20.058Z,2.57
2022-09-03T00:19:29.293Z,1.90
2022-09-03T00:23:31.302Z,2.20
2022-09-03T00:27:36.040Z,1.90
2022-09-03T00:31:42.167Z,2.20
2022-09-03T00:35:49.996Z,2.07
2022-09-03T00:39:51.158Z,2.23
2022-09-03T00:44:17.318Z,2.07
2022-09-03T00:48:28.654Z,2.10
2022-09-03T00:52:44.451Z,2.13
2022-09-03T00:57:01.772Z,2.00
2022-09-03T01:01:11.571Z,1.70
2022-09-03T01:05:27.731Z,1.97
2022-09-03T01:09:32.637Z,1.70
2022-09-03T01:13:37.941Z,1.97
2022-09-03T01:17:55.106Z,1.90
2022-09-03T01:22:01.840Z,2.10
2022-09-03T01:26:34.080Z,2.13
2022-09-03T01:30:38.943Z,1.93
2022-09-03T01:34:50.100Z,2.77
2022-09-03T01:38:57.649Z,1.80
2022-09-03T01:43:08.536Z,2.53
2022-09-03T01:47:16.387Z,2.50
2022-09-03T01:51:26.967Z,2.37
2022-09-03T01:55:31.673Z,2.20
2022-09-03T01:59:51.711Z,2.43
2022-09-03T02:03:54.811Z,2.00
2022-09-03T02:08:00.331Z,2.60
2022-09-03T02:12:12.370Z,1.93
2022-09-03T02:16:16.852Z,1.90
2022-09-03T02:20:23.475Z,2.47
2022-09-03T02:24:25.752Z,2.40
2022-09-03T02:28:29.045Z,2.60
2022-09-03T02:32:31.371Z,3.10
2022-09-03T02:36:38.974Z,3.40
2022-09-03T02:40:40.161Z,2.87
2022-09-03T02:44:50.905Z,3.07
2022-09-03T02:48:52.788Z,3.03
2022-09-03T02:52:53.771Z,3.53
2022-09-03T02:56:54.745Z,2.70
2022-09-03T03:00:56.070Z,2.63
2022-09-03T03:04:57.132Z,2.83
2022-09-03T03:08:58.429Z,2.70
2022-09-03T03:12:59.625Z,2.70
2022-09-03T03:17:00.705Z,2.80
2022-09-03T03:21:08.155Z,2.40
2022-09-03T03:25:09.235Z,2.90
2022-09-03T03:29:16.792Z,2.80
2022-09-03T03:33:17.802Z,2.73
2022-09-03T03:37:18.693Z,2.50
2022-09-03T03:41:25.818Z,2.83
2022-09-03T03:45:26.936Z,3.53
2022-09-03T03:49:27.932Z,2.50
2022-09-03T03:53:30.955Z,2.70
2022-09-03T03:57:31.964Z,2.50
2022-09-03T04:01:33.047Z,2.80
2022-09-03T04:05:34.153Z,3.10
2022-09-03T04:09:35.265Z,2.70
2022-09-03T04:13:38.679Z,2.90
2022-09-03T04:17:39.581Z,2.73
2022-09-03T04:21:40.492Z,2.87
2022-09-03T04:25:41.809Z,2.27
2022-09-03T04:29:42.914Z,2.03
2022-09-03T04:33:44.527Z,2.20
2022-09-03T04:37:45.558Z,2.33
2022-09-03T04:41:46.571Z,2.57
2022-09-03T04:45:47.732Z,2.73
2022-09-03T04:49:48.698Z,2.57
2022-09-03T04:53:56.485Z,3.17
2022-09-03T04:57:58.678Z,2.70
2022-09-03T05:01:59.628Z,3.13
2022-09-03T05:06:02.619Z,2.60
2022-09-03T05:10:06.511Z,2.67
2022-09-03T05:14:09.566Z,3.00
2022-09-03T05:18:11.760Z,1.90
2022-09-03T05:22:12.677Z,3.13
2022-09-03T05:26:16.855Z,2.30
2022-09-03T05:30:18.547Z,2.23
2022-09-03T05:34:19.549Z,2.03
2022-09-03T05:38:20.426Z,2.20
2022-09-03T05:42:21.417Z,2.13
2022-09-03T05:46:32.371Z,1.80
2022-09-03T05:50:34.252Z,2.03
2022-09-03T05:54:35.388Z,1.70
2022-09-03T05:58:38.778Z,2.70
2022-09-03T06:02:39.967Z,1.83
2022-09-03T06:06:44.130Z,2.03
2022-09-03T06:10:45.207Z,2.13
2022-09-03T06:14:46.188Z,2.00
2022-09-03T06:18:47.184Z,2.13
2022-09-03T06:22:51.303Z,2.23
2022-09-03T06:26:52.687Z,2.20
2022-09-03T06:31:01.571Z,2.00
2022-09-03T06:35:02.627Z,1.83
2022-09-03T06:39:03.835Z,1.70
2022-09-03T06:43:04.744Z,2.10
2022-09-03T06:47:05.821Z,2.10
2022-09-03T06:51:15.313Z,1.80
2022-09-03T06:55:16.559Z,1.47
2022-09-03T06:59:17.532Z,1.90
2022-09-03T07:03:20.827Z,2.17
2022-09-03T07:07:21.729Z,1.90
2022-09-03T07:11:29.567Z,1.80
2022-09-03T07:15:31.505Z,2.20
2022-09-03T07:19:32.581Z,1.97
2022-09-03T07:23:35.026Z,2.30
2022-09-03T07:27:36.118Z,2.80
2022-09-03T07:31:40.335Z,2.30
2022-09-03T07:35:41.511Z,2.40
2022-09-03T07:39:43.097Z,2.23
2022-09-03T07:43:49.224Z,2.23
2022-09-03T07:47:50.563Z,2.27
2022-09-03T07:51:53.486Z,2.10
2022-09-03T07:56:03.321Z,2.47
2022-09-03T08:00:06.932Z,2.83
2022-09-03T08:04:10.593Z,2.43
2022-09-03T08:08:13.851Z,2.90
2022-09-03T08:12:16.318Z,2.27
2022-09-03T08:16:18.142Z,2.37
2022-09-03T08:20:20.301Z,2.97
2022-09-03T08:24:23.258Z,2.70
2022-09-03T08:28:24.347Z,2.70
2022-09-03T08:32:27.555Z,2.53
2022-09-03T08:36:30.544Z,3.10
2022-09-03T08:40:35.018Z,2.93
2022-09-03T08:44:44.680Z,2.63
2022-09-03T08:48:46.820Z,3.07
2022-09-03T08:53:09.087Z,3.97
2022-09-03T08:57:12.623Z,4.73
2022-09-03T09:01:18.164Z,4.47
2022-09-03T09:05:31.568Z,4.73
2022-09-03T09:10:03.282Z,4.03
2022-09-03T09:14:24.973Z,5.03
2022-09-03T09:18:38.720Z,4.93
2022-09-03T09:22:43.639Z,5.00
2022-09-03T09:26:46.779Z,4.60
2022-09-03T09:30:50.906Z,4.30
2022-09-03T09:34:54.485Z,5.13
2022-09-03T09:38:56.308Z,4.80
2022-09-03T09:43:06.629Z,4.90
2022-09-03T09:47:14.682Z,4.63
2022-09-03T09:51:25.652Z,6.13
2022-09-03T09:55:28.359Z,5.10
2022-09-03T09:59:30.483Z,5.00
2022-09-03T10:03:35.100Z,4.80
2022-09-03T10:07:36.236Z,5.13
2022-09-03T10:11:40.031Z,4.63
2022-09-03T10:15:57.326Z,5.10
2022-09-03T10:20:26.723Z,5.03
2022-09-03T10:24:43.199Z,4.87
2022-09-03T10:28:47.059Z,5.17
2022-09-03T10:33:06.999Z,5.27
2022-09-03T10:37:31.594Z,4.47
2022-09-03T10:41:55.292Z,4.10
2022-09-03T10:46:11.523Z,4.80
2022-09-03T10:50:20.970Z,4.50
2022-09-03T10:54:38.615Z,3.70
2022-09-03T10:58:52.693Z,3.90
2022-09-03T11:03:32.584Z,3.90
2022-09-03T11:07:46.663Z,3.60
2022-09-03T11:11:54.144Z,4.07
2022-09-03T11:16:01.417Z,3.90
2022-09-03T11:20:18.529Z,4.20
2022-09-03T11:24:26.301Z,3.77
2022-09-03T11:28:49.096Z,3.87
2022-09-03T11:32:57.102Z,4.67
2022-09-03T11:37:18.176Z,5.20
2022-09-03T11:41:27.810Z,3.33
2022-09-03T11:45:32.850Z,4.20
2022-09-03T11:49:37.857Z,3.47
2022-09-03T11:53:38.890Z,3.57
2022-09-03T11:57:45.058Z,3.90
2022-09-03T12:01:51.780Z,3.60
2022-09-03T12:06:19.530Z,3.73
2022-09-03T12:10:45.307Z,3.77
2022-09-03T12:14:56.812Z,4.60
2022-09-03T12:19:01.747Z,3.63
2022-09-03T12:23:03.028Z,4.43
2022-09-03T12:27:04.830Z,3.83
2022-09-03T12:31:11.393Z,4.17
2022-09-03T12:35:58.186Z,4.87
2022-09-03T12:43:49.858Z,4.97
2022-09-03T12:47:37.560Z,4.87
2022-09-03T12:51:51.127Z,4.73
2022-09-03T12:55:54.153Z,3.57
2022-09-03T12:59:58.502Z,3.80
2022-09-03T13:04:07.346Z,3.60
2022-09-03T13:08:17.272Z,2.47
2022-09-03T13:12:33.297Z,2.60
2022-09-03T13:16:47.295Z,2.03
2022-09-03T13:21:04.328Z,2.33
2022-09-03T13:25:15.664Z,3.13
2022-09-03T13:29:39.808Z,2.90
2022-09-03T13:33:47.747Z,2.90
2022-09-03T13:37:57.539Z,3.33
2022-09-03T13:42:05.636Z,3.20
2022-09-03T13:46:12.465Z,3.93
2022-09-03T13:50:23.096Z,3.20
2022-09-03T13:54:49.074Z,3.67
2022-09-03T13:58:49.924Z,3.57
2022-09-03T14:03:10.501Z,4.07
2022-09-03T14:07:15.415Z,3.97
2022-09-03T14:11:55.523Z,4.47
2022-09-03T14:16:12.765Z,4.33
2022-09-03T14:20:20.432Z,4.30
2022-09-03T14:24:40.577Z,4.27
2022-09-03T14:28:45.504Z,3.77
2022-09-03T14:33:07.851Z,3.70
2022-09-03T14:37:18.856Z,3.17
2022-09-03T14:41:29.723Z,3.73
2022-09-03T14:45:46.757Z,3.87
2022-09-03T14:50:03.850Z,3.93
2022-09-03T14:54:20.486Z,3.37
2022-09-03T14:58:31.079Z,3.20
2022-09-03T15:02:52.939Z,3.37
2022-09-03T15:07:12.456Z,3.40
2022-09-03T15:11:32.359Z,3.30
2022-09-03T15:15:52.143Z,3.90
2022-09-03T15:19:59.698Z,2.70
2022-09-03T15:24:16.359Z,2.53
2022-09-03T15:28:29.912Z,2.20
2022-09-03T15:32:58.079Z,3.27
2022-09-03T15:37:07.152Z,2.73
2022-09-03T15:41:14.372Z,5.23
2022-09-03T15:45:31.419Z,4.20
2022-09-03T15:49:48.510Z,2.77
2022-09-03T15:53:54.215Z,3.07
2022-09-03T15:58:06.366Z,2.97
2022-09-03T16:02:20.250Z,3.03
2022-09-03T16:06:42.121Z,3.03
2022-09-03T16:11:12.975Z,3.40
2022-09-03T16:15:24.278Z,4.60
2022-09-03T16:19:32.009Z,3.47
2022-09-03T16:23:42.365Z,4.00
2022-09-03T16:28:12.822Z,3.30
2022-09-03T16:32:28.936Z,3.20
2022-09-03T16:36:46.074Z,3.23
2022-09-03T16:41:06.157Z,3.43
2022-09-03T16:45:16.980Z,3.57
2022-09-03T16:49:27.558Z,3.27
2022-09-03T16:53:51.014Z,3.10
2022-09-03T16:58:09.315Z,3.53
2022-09-03T17:02:43.839Z,3.00
2022-09-03T17:06:57.826Z,3.73
2022-09-03T17:11:23.178Z,3.27
2022-09-03T17:15:34.318Z,3.20
2022-09-03T17:19:55.698Z,3.30
2022-09-03T17:24:20.084Z,3.20
2022-09-03T17:28:32.723Z,2.77
2022-09-03T17:33:00.336Z,3.10
2022-09-03T17:37:26.098Z,3.63
2022-09-03T17:41:37.064Z,3.63
2022-09-03T17:45:47.857Z,3.07
2022-09-03T17:49:58.613Z,3.30
2022-09-03T17:54:12.830Z,4.17
2022-09-03T17:58:18.050Z,5.17
2022-09-03T18:02:55.090Z,5.07
2022-09-03T18:07:14.892Z,5.30
2022-09-03T18:11:23.834Z,5.23
2022-09-03T18:15:41.128Z,4.53
2022-09-03T18:20:10.599Z,5.57
2022-09-03T18:24:51.053Z,5.67
2022-09-03T18:29:31.999Z,5.20
2022-09-03T18:33:51.475Z,4.00
2022-09-03T18:38:12.221Z,4.03
2022-09-03T18:43:08.131Z,4.13
2022-09-03T18:51:49.618Z,4.33
2022-09-03T18:56:34.882Z,4.30
2022-09-03T19:00:58.915Z,4.58
2022-09-03T19:05:34.736Z,4.40
2022-09-03T19:10:16.800Z,4.27
2022-09-03T19:15:10.769Z,4.97
2022-09-03T19:19:36.988Z,4.97
2022-09-03T19:23:57.330Z,5.00
2022-09-03T19:28:27.075Z,5.00
2022-09-03T19:32:50.581Z,4.10
2022-09-03T19:37:30.618Z,4.73
2022-09-03T19:41:53.992Z,4.43
2022-09-03T19:46:32.231Z,4.00
2022-09-03T19:50:56.139Z,4.43
2022-09-03T19:55:17.424Z,4.77
2022-09-03T19:59:41.178Z,4.17
2022-09-03T20:04:01.140Z,3.37
2022-09-03T20:08:22.078Z,2.47
2022-09-03T20:12:24.557Z,2.10
2022-09-03T20:16:41.674Z,1.90
2022-09-03T20:20:52.560Z,2.40
2022-09-03T20:25:05.982Z,2.57
2022-09-03T20:29:18.335Z,2.23
2022-09-03T20:33:23.193Z,2.63
2022-09-03T20:37:29.790Z,2.80
2022-09-03T20:41:59.983Z,3.70
2022-09-03T20:46:31.944Z,2.03
2022-09-03T20:50:57.212Z,1.90
2022-09-03T20:55:05.733Z,2.20
2022-09-03T20:59:30.456Z,1.93
2022-09-03T21:03:44.610Z,1.57
2022-09-03T21:08:04.791Z,1.23
2022-09-03T21:12:27.332Z,1.67
2022-09-03T21:16:37.860Z,1.67
2022-09-03T21:20:45.897Z,1.67
2022-09-03T21:24:50.696Z,1.40
2022-09-03T21:29:16.408Z,2.87
2022-09-03T21:33:30.408Z,1.50
2022-09-03T21:37:37.525Z,1.10
2022-09-03T21:41:48.872Z,1.17
2022-09-03T21:45:56.619Z,1.30
2022-09-03T21:50:19.497Z,1.97
2022-09-03T21:54:29.469Z,1.90
2022-09-03T21:58:53.870Z,1.50
2022-09-03T22:02:56.946Z,1.97
2022-09-03T22:07:07.419Z,1.90
2022-09-03T22:11:21.417Z,1.90
2022-09-03T22:15:23.501Z,1.87
2022-09-03T22:19:25.642Z,2.30
2022-09-03T22:23:47.461Z,5.20
2022-09-03T22:28:02.111Z,4.57
2022-09-03T22:32:23.113Z,2.77
2022-09-03T22:36:28.991Z,2.90
2022-09-03T22:40:53.605Z,2.40
2022-09-03T22:45:24.483Z,2.03
2022-09-03T22:49:35.537Z,2.07
2022-09-03T22:53:58.266Z,2.13
2022-09-03T22:58:15.157Z,1.90
2022-09-03T23:02:26.018Z,1.97
2022-09-03T23:06:33.600Z,1.77
2022-09-03T23:10:45.441Z,2.17
2022-09-03T23:14:53.486Z,2.23
2022-09-03T23:18:57.291Z,2.57
2022-09-03T23:23:14.905Z,2.40
2022-09-03T23:27:19.706Z,2.13
2022-09-03T23:31:26.491Z,2.10
2022-09-03T23:35:31.095Z,2.47
2022-09-03T23:39:41.996Z,2.53
2022-09-03T23:44:17.610Z,1.90
2022-09-03T23:48:33.336Z,2.63
2022-09-03T23:53:11.802Z,2.30
2022-09-03T23:57:23.977Z,2.30
